createdAt,value
2022-09-14T00:01:28.493Z,92.95
2022-09-14T00:04:30.233Z,92.83
2022-09-14T00:07:31.804Z,92.60
2022-09-14T00:10:33.483Z,92.44
2022-09-14T00:13:36.425Z,92.58
2022-09-14T00:16:40.637Z,93.00
2022-09-14T00:19:42.468Z,92.72
2022-09-14T00:22:44.059Z,92.60
2022-09-14T00:25:45.677Z,92.46
2022-09-14T00:28:55.690Z,92.70
2022-09-14T00:31:58.060Z,93.01
2022-09-14T00:34:59.663Z,92.89
2022-09-14T00:38:01.224Z,92.41
2022-09-14T00:41:05.526Z,92.54
2022-09-14T00:44:27.068Z,93.23
2022-09-14T00:47:30.884Z,93.15
2022-09-14T00:50:33.055Z,93.28
2022-09-14T00:53:34.939Z,93.45
2022-09-14T00:56:36.657Z,93.49
2022-09-14T00:59:40.743Z,93.76
2022-09-14T01:02:42.378Z,94.10
2022-09-14T01:06:03.224Z,94.26
2022-09-14T01:09:13.643Z,94.37
2022-09-14T01:12:44.566Z,94.30
2022-09-14T01:16:13.148Z,94.22
2022-09-14T01:19:46.283Z,94.38
2022-09-14T01:23:10.082Z,94.37
2022-09-14T01:26:52.687Z,94.35
2022-09-14T01:30:06.658Z,94.77
2022-09-14T01:33:21.341Z,94.67
2022-09-14T01:36:26.393Z,94.24
2022-09-14T01:39:31.701Z,94.30
2022-09-14T01:42:35.352Z,94.72
2022-09-14T01:45:42.388Z,95.00
2022-09-14T01:48:50.878Z,94.97
2022-09-14T01:51:59.961Z,94.95
2022-09-14T01:55:26.093Z,95.01
2022-09-14T01:58:39.165Z,95.12
2022-09-14T02:01:50.128Z,95.29
2022-09-14T02:05:08.998Z,94.83
2022-09-14T02:08:11.183Z,95.38
2022-09-14T02:11:13.006Z,95.64
2022-09-14T02:14:16.972Z,95.56
2022-09-14T02:17:19.115Z,95.40
2022-09-14T02:20:33.236Z,96.16
2022-09-14T02:23:38.185Z,95.83
2022-09-14T02:26:50.157Z,96.17
2022-09-14T02:29:55.401Z,96.34
2022-09-14T02:33:10.627Z,96.58
2022-09-14T02:36:52.876Z,96.85
2022-09-14T02:40:06.798Z,96.85
2022-09-14T02:43:33.306Z,96.97
2022-09-14T02:47:12.383Z,96.98
2022-09-14T02:50:57.528Z,96.66
2022-09-14T02:54:06.811Z,96.84
2022-09-14T02:57:09.903Z,97.20
2022-09-14T03:00:12.532Z,97.51
2022-09-14T03:03:17.250Z,97.52
2022-09-14T03:06:18.961Z,97.53
2022-09-14T03:09:20.571Z,97.63
2022-09-14T03:12:22.184Z,97.99
2022-09-14T03:15:23.881Z,97.91
2022-09-14T03:18:25.485Z,97.96
2022-09-14T03:21:27.074Z,97.99
2022-09-14T03:24:28.668Z,97.98
2022-09-14T03:27:30.322Z,97.43
2022-09-14T03:30:32.345Z,98.09
2022-09-14T03:33:34.336Z,98.07
2022-09-14T03:36:35.926Z,97.94
2022-09-14T03:39:37.792Z,97.72
2022-09-14T03:42:50.354Z,97.84
2022-09-14T03:45:52.039Z,98.37
2022-09-14T03:48:54.715Z,98.55
2022-09-14T03:51:59.678Z,98.50
2022-09-14T03:55:01.928Z,98.66
2022-09-14T03:58:03.560Z,98.79
2022-09-14T04:01:11.429Z,98.89
2022-09-14T04:04:13.444Z,99.01
2022-09-14T04:07:15.981Z,99.07
2022-09-14T04:10:17.732Z,98.80
2022-09-14T04:13:19.868Z,98.07
2022-09-14T04:16:21.952Z,98.04
2022-09-14T04:19:23.638Z,97.68
2022-09-14T04:22:25.409Z,97.84
2022-09-14T04:25:26.999Z,98.39
2022-09-14T04:28:28.795Z,98.31
2022-09-14T04:31:30.846Z,98.32
2022-09-14T04:34:32.762Z,98.73
2022-09-14T04:37:34.372Z,98.80
2022-09-14T04:40:41.410Z,99.06
2022-09-14T04:43:45.227Z,99.25
2022-09-14T04:46:47.306Z,99.38
2022-09-14T04:49:49.136Z,99.52
2022-09-14T04:52:50.834Z,99.66
2022-09-14T04:55:52.417Z,100.00
2022-09-14T04:58:58.614Z,100.00
2022-09-14T05:02:00.422Z,99.99
2022-09-14T05:05:02.046Z,100.00
2022-09-14T05:08:03.707Z,100.00
2022-09-14T05:11:06.822Z,100.00
2022-09-14T05:14:13.087Z,100.00
2022-09-14T05:17:14.730Z,100.00
2022-09-14T05:20:16.606Z,100.00
2022-09-14T05:23:18.211Z,100.00
2022-09-14T05:26:19.817Z,100.00
2022-09-14T05:29:21.477Z,100.00
2022-09-14T05:32:23.078Z,100.00
2022-09-14T05:35:24.643Z,100.00
2022-09-14T05:38:28.897Z,100.00
2022-09-14T05:41:30.716Z,100.00
2022-09-14T05:44:32.329Z,100.00
2022-09-14T05:47:38.411Z,100.00
2022-09-14T05:50:40.755Z,100.00
2022-09-14T05:53:43.597Z,100.00
2022-09-14T05:56:45.284Z,100.00
2022-09-14T05:59:46.908Z,100.00
2022-09-14T06:02:54.459Z,100.00
2022-09-14T06:05:58.109Z,100.00
2022-09-14T06:09:00.183Z,100.00
2022-09-14T06:12:02.017Z,100.00
2022-09-14T06:15:03.802Z,100.00
2022-09-14T06:18:05.463Z,100.00
2022-09-14T06:21:08.472Z,100.00
2022-09-14T06:24:12.455Z,100.00
2022-09-14T06:27:15.432Z,100.00
2022-09-14T06:30:17.318Z,100.00
2022-09-14T06:33:19.456Z,100.00
2022-09-14T06:36:23.401Z,100.00
2022-09-14T06:39:25.053Z,100.00
2022-09-14T06:42:29.644Z,100.00
2022-09-14T06:45:36.806Z,100.00
2022-09-14T06:48:44.604Z,100.00
2022-09-14T06:51:47.456Z,100.00
2022-09-14T06:54:49.093Z,100.00
2022-09-14T06:57:50.750Z,100.00
2022-09-14T07:00:52.380Z,100.00
2022-09-14T07:03:54.661Z,100.00
2022-09-14T07:06:56.404Z,100.00
2022-09-14T07:09:57.966Z,100.00
2022-09-14T07:13:00.419Z,100.00
2022-09-14T07:16:03.616Z,100.00
2022-09-14T07:19:08.205Z,99.87
2022-09-14T07:22:09.911Z,99.21
2022-09-14T07:25:11.933Z,98.93
2022-09-14T07:28:13.601Z,98.09
2022-09-14T07:31:21.491Z,98.00
2022-09-14T07:34:23.922Z,97.06
2022-09-14T07:37:25.519Z,96.55
2022-09-14T07:40:27.312Z,96.56
2022-09-14T07:43:30.026Z,94.73
2022-09-14T07:46:38.335Z,94.15
2022-09-14T07:49:39.989Z,94.29
2022-09-14T07:52:41.601Z,93.96
2022-09-14T07:55:43.274Z,93.60
2022-09-14T07:58:45.549Z,92.84
2022-09-14T08:01:48.301Z,91.75
2022-09-14T08:04:53.775Z,91.49
2022-09-14T08:07:56.421Z,91.26
2022-09-14T08:11:17.043Z,91.53
2022-09-14T08:14:20.627Z,89.93
2022-09-14T08:17:24.027Z,89.34
2022-09-14T08:20:25.645Z,88.88
2022-09-14T08:23:27.340Z,87.13
2022-09-14T08:26:29.180Z,86.85
2022-09-14T08:29:30.805Z,85.51
2022-09-14T08:32:32.446Z,84.72
2022-09-14T08:35:56.451Z,83.72
2022-09-14T08:38:55.613Z,83.41
2022-09-14T08:42:00.192Z,82.77
2022-09-14T08:45:09.503Z,82.23
2022-09-14T08:48:30.020Z,80.42
2022-09-14T08:51:31.553Z,79.91
2022-09-14T08:54:33.385Z,80.00
2022-09-14T08:57:45.833Z,79.46
2022-09-14T09:00:59.663Z,78.77
2022-09-14T09:04:26.375Z,78.39
2022-09-14T09:07:49.075Z,78.30
2022-09-14T09:10:53.489Z,77.68
2022-09-14T09:13:56.181Z,77.69
2022-09-14T09:17:01.600Z,77.53
2022-09-14T09:20:07.235Z,77.37
2022-09-14T09:23:19.647Z,76.97
2022-09-14T09:26:32.814Z,75.73
2022-09-14T09:29:34.477Z,75.45
2022-09-14T09:32:45.065Z,75.20
2022-09-14T09:36:14.360Z,75.87
2022-09-14T09:39:16.831Z,74.07
2022-09-14T09:42:26.960Z,74.83
2022-09-14T09:45:47.666Z,73.71
2022-09-14T09:48:49.395Z,72.96
2022-09-14T09:51:52.509Z,71.06
2022-09-14T09:54:56.578Z,70.55
2022-09-14T09:58:52.156Z,68.94
2022-09-14T10:01:57.711Z,70.69
2022-09-14T10:05:18.227Z,70.21
2022-09-14T10:08:19.925Z,69.12
2022-09-14T10:11:33.118Z,68.32
2022-09-14T10:14:37.580Z,67.79
2022-09-14T10:17:39.230Z,68.66
2022-09-14T10:21:05.487Z,68.50
2022-09-14T10:24:17.734Z,69.27
2022-09-14T10:27:39.788Z,69.61
2022-09-14T10:30:51.102Z,68.77
2022-09-14T10:33:58.222Z,68.92
2022-09-14T10:37:43.374Z,68.40
2022-09-14T10:40:52.674Z,67.11
2022-09-14T10:44:07.637Z,67.40
2022-09-14T10:47:31.464Z,67.23
2022-09-14T10:50:42.144Z,67.07
2022-09-14T10:53:53.258Z,67.76
2022-09-14T10:57:03.562Z,67.91
2022-09-14T11:00:12.872Z,67.60
2022-09-14T11:03:27.731Z,67.43
2022-09-14T11:06:45.733Z,66.61
2022-09-14T11:10:18.892Z,66.06
2022-09-14T11:13:42.328Z,66.56
2022-09-14T11:17:13.414Z,66.60
2022-09-14T11:20:15.595Z,66.88
2022-09-14T11:23:17.679Z,66.21
2022-09-14T11:26:57.606Z,65.74
2022-09-14T11:30:37.184Z,65.03
2022-09-14T11:33:54.105Z,63.68
2022-09-14T11:37:03.502Z,64.71
2022-09-14T11:40:15.918Z,64.57
2022-09-14T11:43:26.049Z,65.33
2022-09-14T11:46:31.921Z,65.31
2022-09-14T11:49:34.456Z,65.16
2022-09-14T11:52:36.378Z,64.95
2022-09-14T11:55:43.946Z,65.00
2022-09-14T11:58:46.754Z,65.32
2022-09-14T12:01:48.419Z,64.95
2022-09-14T12:05:05.550Z,64.63
2022-09-14T12:08:32.121Z,64.48
2022-09-14T12:11:35.842Z,64.52
2022-09-14T12:14:40.668Z,64.22
2022-09-14T12:17:42.758Z,64.25
2022-09-14T12:21:05.573Z,64.57
2022-09-14T12:24:15.285Z,64.03
2022-09-14T12:27:23.480Z,64.45
2022-09-14T12:30:39.784Z,65.12
2022-09-14T12:33:43.769Z,65.30
2022-09-14T12:36:45.438Z,66.15
2022-09-14T12:40:34.369Z,65.09
2022-09-14T12:43:36.111Z,63.86
2022-09-14T12:46:39.197Z,63.79
2022-09-14T12:49:41.339Z,64.50
2022-09-14T12:52:54.492Z,64.88
2022-09-14T12:56:04.192Z,64.09
2022-09-14T12:59:23.496Z,64.86
2022-09-14T13:03:02.707Z,64.00
2022-09-14T13:06:13.652Z,64.27
2022-09-14T13:09:30.892Z,64.54
2022-09-14T13:12:43.281Z,64.64
2022-09-14T13:15:51.782Z,65.15
2022-09-14T13:19:01.452Z,65.67
2022-09-14T13:22:03.203Z,66.23
2022-09-14T13:25:05.278Z,66.54
2022-09-14T13:28:14.519Z,66.28
2022-09-14T13:31:27.146Z,66.01
2022-09-14T13:34:37.104Z,66.58
2022-09-14T13:37:38.971Z,66.75
2022-09-14T13:40:40.720Z,66.46
2022-09-14T13:43:44.579Z,66.28
2022-09-14T13:46:46.414Z,66.72
2022-09-14T13:49:50.781Z,66.49
2022-09-14T13:53:02.925Z,66.16
2022-09-14T13:56:34.643Z,64.64
2022-09-14T13:59:36.317Z,65.02
2022-09-14T14:02:46.044Z,64.69
2022-09-14T14:05:47.810Z,64.72
2022-09-14T14:09:00.421Z,58.57
2022-09-14T14:12:02.224Z,58.66
2022-09-14T14:15:26.209Z,61.43
2022-09-14T14:18:39.881Z,64.33
2022-09-14T14:21:41.582Z,65.46
2022-09-14T14:25:12.243Z,65.69
2022-09-14T14:28:27.910Z,66.10
2022-09-14T14:31:29.556Z,66.73
2022-09-14T14:34:31.276Z,71.02
2022-09-14T14:37:33.139Z,76.25
2022-09-14T14:40:35.216Z,79.65
2022-09-14T14:43:37.059Z,81.49
2022-09-14T14:46:40.441Z,83.29
2022-09-14T14:52:44.043Z,86.29
2022-09-14T14:55:45.805Z,88.37
2022-09-14T14:58:47.668Z,89.74
2022-09-14T15:01:52.041Z,90.02
2022-09-14T15:04:53.720Z,90.85
2022-09-14T15:07:56.123Z,92.04
2022-09-14T15:10:58.097Z,92.10
2022-09-14T15:13:59.829Z,93.94
2022-09-14T15:17:02.730Z,93.98
2022-09-14T15:20:04.743Z,94.59
2022-09-14T15:23:06.354Z,94.37
2022-09-14T15:26:08.090Z,95.03
2022-09-14T15:29:13.287Z,96.44
2022-09-14T15:32:14.981Z,96.86
2022-09-14T15:35:16.809Z,96.55
2022-09-14T15:38:18.526Z,97.14
2022-09-14T15:41:20.348Z,98.75
2022-09-14T15:44:22.705Z,96.94
2022-09-14T15:47:24.362Z,97.12
2022-09-14T15:50:26.030Z,97.03
2022-09-14T15:53:28.010Z,97.92
2022-09-14T15:56:29.821Z,98.83
2022-09-14T15:59:31.971Z,98.48
2022-09-14T16:02:33.715Z,99.79
2022-09-14T16:05:39.698Z,99.38
2022-09-14T16:08:41.947Z,99.67
2022-09-14T16:11:44.296Z,100.00
2022-09-14T16:14:45.935Z,100.00
2022-09-14T16:17:54.235Z,100.00
2022-09-14T16:20:55.958Z,100.00
2022-09-14T16:24:00.186Z,99.28
2022-09-14T16:27:01.863Z,99.22
2022-09-14T16:30:03.838Z,99.37
2022-09-14T16:33:05.493Z,98.52
2022-09-14T16:36:10.363Z,98.51
2022-09-14T16:39:18.412Z,98.51
2022-09-14T16:42:20.220Z,98.42
2022-09-14T16:45:21.949Z,98.40
2022-09-14T16:48:23.599Z,97.95
2022-09-14T16:51:28.186Z,97.93
2022-09-14T16:54:31.658Z,98.04
2022-09-14T16:57:33.378Z,98.61
2022-09-14T17:00:35.517Z,98.64
2022-09-14T17:03:37.703Z,99.00
2022-09-14T17:06:41.512Z,99.27
2022-09-14T17:09:43.349Z,98.87
2022-09-14T17:12:46.846Z,99.26
2022-09-14T17:15:48.566Z,99.08
2022-09-14T17:18:52.161Z,99.60
2022-09-14T17:21:56.275Z,99.04
2022-09-14T17:24:58.180Z,99.47
2022-09-14T17:27:59.899Z,99.81
2022-09-14T17:31:03.116Z,100.00
2022-09-14T17:34:07.185Z,100.00
2022-09-14T17:37:09.165Z,100.00
2022-09-14T17:40:11.164Z,100.00
2022-09-14T17:43:13.501Z,100.00
2022-09-14T17:46:16.203Z,100.00
2022-09-14T17:49:17.946Z,100.00
2022-09-14T17:52:19.591Z,100.00
2022-09-14T17:55:21.284Z,100.00
2022-09-14T17:58:22.885Z,100.00
2022-09-14T18:01:24.522Z,100.00
2022-09-14T18:04:27.041Z,100.00
2022-09-14T18:07:30.676Z,100.00
2022-09-14T18:10:32.424Z,100.00
2022-09-14T18:13:34.555Z,100.00
2022-09-14T18:16:36.366Z,100.00
2022-09-14T18:19:38.930Z,100.00
2022-09-14T18:22:41.300Z,100.00
2022-09-14T18:25:43.278Z,100.00
2022-09-14T18:28:46.072Z,100.00
2022-09-14T18:31:47.945Z,100.00
2022-09-14T18:34:49.715Z,100.00
2022-09-14T18:37:51.307Z,100.00
2022-09-14T18:40:53.128Z,100.00
2022-09-14T18:43:56.166Z,100.00
2022-09-14T18:46:58.608Z,100.00
2022-09-14T18:50:00.710Z,100.00
2022-09-14T18:53:02.336Z,100.00
2022-09-14T18:56:06.506Z,100.00
2022-09-14T18:59:12.448Z,100.00
2022-09-14T19:02:14.174Z,100.00
2022-09-14T19:05:15.949Z,100.00
2022-09-14T19:08:17.609Z,100.00
2022-09-14T19:11:22.552Z,100.00
2022-09-14T19:14:24.254Z,100.00
2022-09-14T19:17:26.000Z,100.00
2022-09-14T19:20:43.175Z,100.00
2022-09-14T19:23:54.844Z,100.00
2022-09-14T19:26:56.484Z,100.00
2022-09-14T19:30:00.064Z,100.00
2022-09-14T19:33:02.038Z,100.00
2022-09-14T19:36:09.240Z,100.00
2022-09-14T19:39:11.312Z,100.00
2022-09-14T19:42:12.922Z,100.00
2022-09-14T19:45:16.558Z,100.00
2022-09-14T19:48:18.397Z,100.00
2022-09-14T19:51:23.043Z,100.00
2022-09-14T19:54:25.032Z,100.00
2022-09-14T19:57:26.697Z,100.00
2022-09-14T20:00:28.311Z,100.00
2022-09-14T20:03:29.963Z,100.00
2022-09-14T20:06:37.257Z,100.00
2022-09-14T20:09:38.968Z,100.00
2022-09-14T20:12:40.615Z,100.00
2022-09-14T20:15:42.281Z,100.00
2022-09-14T20:18:45.492Z,100.00
2022-09-14T20:21:49.101Z,100.00
2022-09-14T20:24:50.705Z,100.00
2022-09-14T20:27:52.333Z,100.00
2022-09-14T20:30:59.024Z,100.00
2022-09-14T20:34:00.841Z,100.00
2022-09-14T20:37:02.485Z,100.00
2022-09-14T20:40:05.357Z,100.00
2022-09-14T20:43:07.093Z,100.00
2022-09-14T20:46:12.324Z,100.00
2022-09-14T20:49:17.202Z,100.00
2022-09-14T20:52:19.421Z,100.00
2022-09-14T20:55:21.031Z,100.00
2022-09-14T20:58:22.608Z,100.00
2022-09-14T21:01:27.658Z,100.00
2022-09-14T21:04:29.338Z,100.00
2022-09-14T21:07:30.935Z,100.00
2022-09-14T21:10:32.570Z,100.00
2022-09-14T21:13:35.426Z,100.00
2022-09-14T21:16:43.586Z,100.00
2022-09-14T21:19:45.208Z,100.00
2022-09-14T21:22:47.161Z,100.00
2022-09-14T21:25:55.960Z,100.00
2022-09-14T21:28:59.439Z,100.00
2022-09-14T21:32:03.582Z,100.00
2022-09-14T21:35:08.929Z,100.00
2022-09-14T21:38:10.986Z,100.00
2022-09-14T21:41:12.642Z,100.00
2022-09-14T21:44:14.840Z,100.00
2022-09-14T21:47:16.443Z,100.00
2022-09-14T21:50:18.135Z,100.00
2022-09-14T21:53:19.734Z,100.00
2022-09-14T21:56:23.727Z,100.00
2022-09-14T21:59:25.606Z,100.00
2022-09-14T22:02:27.589Z,100.00
2022-09-14T22:05:29.298Z,100.00
2022-09-14T22:08:31.552Z,100.00
2022-09-14T22:11:35.171Z,100.00
2022-09-14T22:14:36.781Z,100.00
2022-09-14T22:17:38.661Z,100.00
2022-09-14T22:20:40.672Z,100.00
2022-09-14T22:23:42.327Z,100.00
2022-09-14T22:26:44.502Z,100.00
2022-09-14T22:29:46.212Z,100.00
2022-09-14T22:32:47.880Z,100.00
2022-09-14T22:35:54.802Z,100.00
2022-09-14T22:38:57.790Z,100.00
2022-09-14T22:41:59.686Z,100.00
2022-09-14T22:45:01.312Z,100.00
2022-09-14T22:48:04.058Z,100.00
2022-09-14T22:51:07.688Z,100.00
2022-09-14T22:54:09.321Z,100.00
2022-09-14T22:57:10.961Z,100.00
2022-09-14T23:00:13.393Z,100.00
2022-09-14T23:03:16.611Z,100.00
2022-09-14T23:06:18.231Z,100.00
2022-09-14T23:09:21.998Z,100.00
2022-09-14T23:12:23.660Z,100.00
2022-09-14T23:15:25.379Z,100.00
2022-09-14T23:18:27.992Z,100.00
2022-09-14T23:21:31.145Z,100.00
2022-09-14T23:24:32.997Z,100.00
2022-09-14T23:27:34.664Z,100.00
2022-09-14T23:30:36.474Z,100.00
2022-09-14T23:33:38.430Z,100.00
2022-09-14T23:36:40.165Z,100.00
2022-09-14T23:39:41.901Z,100.00
2022-09-14T23:42:43.790Z,100.00
2022-09-14T23:45:46.640Z,100.00
2022-09-14T23:48:49.067Z,100.00
2022-09-14T23:51:50.740Z,100.00
2022-09-14T23:54:52.497Z,100.00
2022-09-14T23:57:54.355Z,100.00
